Time;durP1;ratioP1;P1;durP2;ratioP2;P2;SDS_P1;SDS_P2;PMS_P1;PMS_P2;Temp;Humidity;BMP_temperature;BMP_pressure;BME280_temperature;BME280_humidity;BME280_pressure;Samples;Min_cycle;Max_cycle;Signal;HPM_P1;HPM_P2
2022/02/17 00:00:45;;;;;;;3.53;1.97;;;8.90;99.90;;;;;;4438449;32;20234;-72
2022/02/17 00:03:13;;;;;;;3.33;1.97;;;8.90;99.90;;;;;;4439532;32;20174;-72
2022/02/17 00:05:40;;;;;;;2.90;2.10;;;8.90;99.90;;;;;;4440539;32;20178;-72
2022/02/17 00:08:07;;;;;;;3.00;2.00;;;8.90;99.90;;;;;;4439925;32;20499;-72
2022/02/17 00:10:35;;;;;;;4.00;2.33;;;8.90;99.90;;;;;;4441509;32;20389;-72
2022/02/17 00:13:02;;;;;;;4.50;2.23;;;8.90;99.90;;;;;;4438711;32;20197;-72
2022/02/17 00:15:31;;;;;;;3.77;1.93;;;9.00;99.90;;;;;;4438106;32;20290;-72
2022/02/17 00:17:58;;;;;;;3.07;1.93;;;8.90;99.90;;;;;;4440148;32;20177;-72
2022/02/17 00:20:26;;;;;;;2.70;1.93;;;8.90;99.90;;;;;;4440299;32;20167;-72
2022/02/17 00:22:53;;;;;;;2.77;1.90;;;8.90;99.90;;;;;;4438104;32;20233;-72
2022/02/17 00:25:20;;;;;;;3.83;2.00;;;8.90;99.90;;;;;;4439966;32;20202;-72
2022/02/17 00:27:47;;;;;;;4.30;2.00;;;9.00;99.90;;;;;;4439528;32;20193;-72
2022/02/17 00:30:16;;;;;;;3.17;2.03;;;8.90;99.90;;;;;;4438302;32;20229;-72
2022/02/17 00:32:43;;;;;;;3.03;1.97;;;8.90;99.90;;;;;;4438142;32;20166;-72
2022/02/17 00:35:10;;;;;;;2.90;1.80;;;8.90;99.90;;;;;;4438520;32;20257;-72
2022/02/17 00:37:37;;;;;;;3.20;1.90;;;9.00;99.90;;;;;;4439541;32;20498;-72
2022/02/17 00:40:05;;;;;;;3.63;1.90;;;8.90;99.90;;;;;;4439413;32;20170;-72
2022/02/17 00:42:32;;;;;;;4.13;1.90;;;8.90;99.90;;;;;;4439817;32;20193;-72
2022/02/17 00:44:59;;;;;;;3.30;1.90;;;8.90;99.90;;;;;;4439555;32;20236;-72
2022/02/17 00:47:26;;;;;;;3.10;2.00;;;8.90;99.90;;;;;;4438844;32;20181;-72
2022/02/17 00:49:53;;;;;;;4.00;2.10;;;8.90;99.90;;;;;;4441329;32;20158;-72
2022/02/17 00:52:22;;;;;;;2.93;1.90;;;8.90;99.90;;;;;;4439032;32;20189;-72
2022/02/17 00:54:49;;;;;;;3.30;2.10;;;8.90;99.90;;;;;;4438239;32;20612;-72
2022/02/17 00:57:16;;;;;;;3.17;2.00;;;8.90;99.90;;;;;;4438998;32;20194;-73
2022/02/17 00:59:43;;;;;;;3.40;2.03;;;8.90;99.90;;;;;;4441097;32;20185;-72
2022/02/17 01:02:13;;;;;;;3.43;2.10;;;8.90;99.90;;;;;;4426072;32;20201;-72
2022/02/17 01:04:39;;;;;;;3.37;1.90;;;8.90;99.90;;;;;;4439734;32;20204;-72
2022/02/17 01:07:07;;;;;;;3.30;2.10;;;9.00;99.90;;;;;;4437846;32;20528;-72
2022/02/17 01:09:34;;;;;;;3.20;1.93;;;9.00;99.90;;;;;;4437977;32;20230;-72
2022/02/17 01:12:00;;;;;;;2.50;1.87;;;9.00;99.90;;;;;;4440678;32;20169;-72
2022/02/17 01:14:30;;;;;;;3.30;2.20;;;9.00;99.90;;;;;;4437761;32;20174;-71
2022/02/17 01:16:57;;;;;;;3.07;2.00;;;9.00;99.90;;;;;;4439859;32;20193;-71
2022/02/17 01:19:25;;;;;;;4.83;2.03;;;9.00;99.90;;;;;;4440218;32;20143;-71
2022/02/17 01:21:52;;;;;;;4.43;2.10;;;9.00;99.90;;;;;;4439393;32;20262;-71
2022/02/17 01:24:19;;;;;;;4.13;2.30;;;9.10;99.90;;;;;;4437675;32;20613;-72
2022/02/17 01:26:46;;;;;;;4.60;2.30;;;9.00;99.90;;;;;;4440879;32;20146;-72
2022/02/17 01:29:13;;;;;;;4.93;2.40;;;9.00;99.90;;;;;;4438957;32;20527;-72
2022/02/17 01:31:41;;;;;;;4.67;2.40;;;9.00;99.90;;;;;;4437624;32;20197;-72
2022/02/17 01:34:08;;;;;;;4.17;2.40;;;9.00;99.90;;;;;;4439338;32;20178;-72
2022/02/17 01:36:35;;;;;;;4.27;2.17;;;9.00;99.90;;;;;;4438891;32;20170;-72
2022/02/17 01:39:03;;;;;;;4.47;2.30;;;8.90;99.90;;;;;;4437878;32;20198;-72
2022/02/17 01:41:30;;;;;;;3.63;2.40;;;8.90;99.90;;;;;;4439123;32;20185;-72
2022/02/17 01:44:02;;;;;;;4.53;2.30;;;8.80;99.90;;;;;;4439184;32;20189;-72
2022/02/17 01:46:37;;;;;;;5.13;2.50;;;8.80;99.90;;;;;;4437569;32;20248;-72
2022/02/17 01:49:06;;;;;;;4.23;2.27;;;8.90;99.90;;;;;;4439041;32;20201;-71
2022/02/17 01:51:33;;;;;;;3.90;2.43;;;8.80;99.90;;;;;;4438026;32;20406;-71
2022/02/17 01:54:02;;;;;;;4.00;2.30;;;8.90;99.90;;;;;;4437339;32;20208;-72
2022/02/17 03:06:19;;;;;;;8.17;3.40;;;7.40;99.90;;;;;;4483645;31;20647;-68
2022/02/17 03:08:46;;;;;;;6.00;3.43;;;7.40;99.90;;;;;;4470089;32;20171;-68
2022/02/17 03:11:13;;;;;;;5.60;3.43;;;7.40;99.90;;;;;;4467074;32;20245;-68
2022/02/17 03:13:40;;;;;;;5.00;3.70;;;7.40;99.90;;;;;;4467339;32;20244;-68
2022/02/17 03:16:07;;;;;;;5.47;3.30;;;7.40;99.90;;;;;;4468831;32;20264;-68
2022/02/17 03:18:34;;;;;;;6.33;3.53;;;7.40;99.90;;;;;;4468525;32;20469;-68
2022/02/17 03:21:01;;;;;;;5.53;3.70;;;7.40;99.90;;;;;;4466900;32;20593;-68
2022/02/17 03:23:28;;;;;;;6.20;3.53;;;7.40;99.90;;;;;;4466413;32;20193;-68
2022/02/17 03:25:57;;;;;;;5.97;3.93;;;7.40;99.90;;;;;;4467200;32;20193;-68
2022/02/17 03:28:24;;;;;;;5.43;3.60;;;7.40;99.90;;;;;;4469218;32;20164;-68
2022/02/17 03:30:52;;;;;;;5.83;3.87;;;7.30;99.90;;;;;;4468359;32;20200;-68
2022/02/17 03:33:18;;;;;;;7.37;4.10;;;7.40;99.90;;;;;;4468172;32;20185;-68
2022/02/17 03:35:47;;;;;;;5.37;3.80;;;7.30;99.90;;;;;;4468189;32;20196;-68
2022/02/17 03:38:15;;;;;;;4.70;3.50;;;7.30;99.90;;;;;;4468499;32;20591;-68
2022/02/17 03:40:41;;;;;;;5.63;4.10;;;7.40;99.90;;;;;;4466628;32;20194;-68
2022/02/17 03:43:08;;;;;;;5.43;3.60;;;7.40;99.90;;;;;;4469752;32;20161;-68
2022/02/17 03:45:35;;;;;;;5.97;3.83;;;7.40;99.90;;;;;;4467931;32;20169;-67
2022/02/17 03:48:02;;;;;;;7.73;4.00;;;7.50;99.90;;;;;;4468057;32;20189;-68
2022/02/17 03:50:29;;;;;;;6.07;3.80;;;7.50;99.90;;;;;;4466178;32;20573;-68
2022/02/17 03:52:56;;;;;;;4.90;3.60;;;7.60;99.90;;;;;;4466669;32;20249;-68
2022/02/17 03:55:23;;;;;;;5.63;3.50;;;7.60;99.90;;;;;;4467818;32;20232;-68
2022/02/17 03:57:50;;;;;;;5.27;3.63;;;7.60;99.90;;;;;;4467709;32;20238;-68
2022/02/17 04:00:17;;;;;;;5.50;3.40;;;7.60;99.90;;;;;;4467347;32;20252;-68
2022/02/17 04:02:44;;;;;;;4.27;3.47;;;7.70;99.90;;;;;;4466244;32;20199;-68
2022/02/17 04:05:11;;;;;;;4.33;3.27;;;7.70;99.90;;;;;;4466824;32;20250;-68
2022/02/17 04:07:39;;;;;;;3.97;3.33;;;7.70;99.90;;;;;;4466375;32;20256;-68
2022/02/17 04:10:06;;;;;;;4.90;3.40;;;7.80;99.90;;;;;;4467675;32;20593;-68
2022/02/17 04:12:33;;;;;;;4.23;3.03;;;7.80;99.90;;;;;;4468464;32;20134;-68
2022/02/17 04:15:00;;;;;;;4.93;3.30;;;7.80;99.90;;;;;;4467369;32;20482;-69
2022/02/17 04:17:27;;;;;;;5.37;3.13;;;7.90;99.90;;;;;;4457533;32;20193;-69
2022/02/17 04:19:54;;;;;;;4.93;3.20;;;7.90;99.90;;;;;;4455474;32;20458;-69
2022/02/17 04:22:21;;;;;;;4.33;3.20;;;7.90;99.90;;;;;;4457407;32;20205;-69
2022/02/17 04:24:47;;;;;;;4.60;3.13;;;7.90;99.90;;;;;;4457020;32;20498;-69
2022/02/17 04:27:14;;;;;;;5.30;3.23;;;7.90;99.90;;;;;;4455278;32;20269;-69
2022/02/17 04:29:41;;;;;;;4.30;3.07;;;7.90;99.90;;;;;;4455672;32;20241;-69
2022/02/17 04:32:08;;;;;;;4.60;3.40;;;7.90;99.90;;;;;;4457006;32;20595;-70
2022/02/17 04:34:35;;;;;;;5.23;3.33;;;8.00;99.90;;;;;;4456437;32;20627;-69
2022/02/17 04:37:02;;;;;;;5.23;3.20;;;8.00;99.90;;;;;;4455120;32;20204;-69
2022/02/17 04:39:29;;;;;;;4.73;3.37;;;8.00;99.90;;;;;;4456791;32;20182;-69
2022/02/17 04:44:41;;;;;;;3.53;2.90;;;8.00;99.90;;;;;;4455834;32;20212;-69
2022/02/17 04:47:09;;;;;;;5.13;3.30;;;8.00;99.90;;;;;;4455072;32;20174;-69
2022/02/17 04:49:36;;;;;;;5.40;3.40;;;8.10;99.90;;;;;;4455328;32;20197;-69
2022/02/17 04:52:03;;;;;;;4.10;3.03;;;8.10;99.90;;;;;;4457005;32;20516;-69
2022/02/17 04:54:30;;;;;;;4.40;3.17;;;8.20;99.90;;;;;;4455258;32;20265;-70
2022/02/17 04:57:00;;;;;;;4.23;3.30;;;8.20;99.90;;;;;;4455128;32;20544;-69
2022/02/17 04:59:27;;;;;;;4.13;3.10;;;8.20;99.90;;;;;;4455004;32;20229;-69
2022/02/17 05:01:54;;;;;;;3.80;3.07;;;8.20;99.90;;;;;;4458151;32;20488;-68
2022/02/17 05:04:21;;;;;;;4.37;3.23;;;8.30;99.90;;;;;;4457346;32;20419;-69
2022/02/17 05:06:48;;;;;;;3.90;2.93;;;8.30;99.90;;;;;;4456472;32;20228;-69
2022/02/17 05:09:15;;;;;;;4.10;2.93;;;8.30;99.90;;;;;;4455474;32;20186;-70
2022/02/17 05:11:42;;;;;;;4.10;2.97;;;8.40;99.90;;;;;;4454503;32;20197;-69
2022/02/17 05:14:09;;;;;;;4.93;2.87;;;8.40;99.90;;;;;;4456199;32;20194;-69
2022/02/17 05:16:36;;;;;;;4.70;3.27;;;8.50;99.90;;;;;;4457914;32;20153;-69
2022/02/17 05:19:03;;;;;;;3.73;3.00;;;8.50;99.90;;;;;;4456738;32;20190;-69
2022/02/17 05:21:30;;;;;;;3.63;2.90;;;8.50;99.90;;;;;;4455833;32;20497;-69
2022/02/17 05:32:56;;;;;;;5.03;2.80;;;8.80;99.90;;;;;;4485522;31;20191;-68
2022/02/17 05:35:23;;;;;;;3.63;2.50;;;8.80;99.90;;;;;;4468765;32;20244;-67
2022/02/17 05:37:50;;;;;;;3.73;1.67;;;8.90;99.90;;;;;;4468787;32;20241;-65
2022/02/17 05:40:17;;;;;;;2.10;1.03;;;8.90;99.90;;;;;;4470032;32;20476;-69
2022/02/17 05:42:43;;;;;;;3.30;0.90;;;8.80;99.90;;;;;;4465933;32;20264;-69
2022/02/17 05:45:10;;;;;;;1.30;1.00;;;8.50;99.90;;;;;;4467775;32;20580;-70
2022/02/17 05:47:41;;;;;;;3.10;1.03;;;8.40;99.90;;;;;;4469120;32;20232;-68
2022/02/17 05:50:09;;;;;;;1.97;1.00;;;8.20;99.90;;;;;;4468573;32;20146;-71
2022/02/17 05:52:37;;;;;;;1.50;0.63;;;8.00;99.90;;;;;;4468267;32;20174;-70
2022/02/17 05:55:04;;;;;;;1.50;0.80;;;7.80;99.90;;;;;;4469771;32;20161;-69
2022/02/17 05:57:31;;;;;;;1.53;0.70;;;7.60;99.90;;;;;;4468235;32;20189;-70
2022/02/17 05:59:58;;;;;;;1.13;0.60;;;7.50;99.90;;;;;;4469460;32;20189;-69
2022/02/17 06:02:27;;;;;;;0.70;0.70;;;7.40;99.90;;;;;;4466591;32;20523;-69
2022/02/17 06:04:54;;;;;;;0.80;0.70;;;7.30;99.90;;;;;;4467493;32;20199;-69
2022/02/17 06:07:21;;;;;;;1.77;0.60;;;7.20;99.90;;;;;;4468137;32;20194;-69
2022/02/17 06:09:48;;;;;;;1.07;0.80;;;7.20;99.90;;;;;;4468509;32;20520;-70
2022/02/17 06:12:15;;;;;;;1.70;0.93;;;7.10;99.90;;;;;;4466188;32;20173;-70
2022/02/17 06:14:42;;;;;;;0.97;0.70;;;7.10;99.90;;;;;;4465643;32;20240;-70
2022/02/17 06:17:09;;;;;;;3.17;1.20;;;7.00;99.90;;;;;;4466964;32;20503;-70
2022/02/17 06:19:35;;;;;;;2.27;0.70;;;7.00;99.90;;;;;;4469368;32;20138;-70
2022/02/17 06:22:03;;;;;;;1.03;0.80;;;7.00;99.90;;;;;;4466888;32;20522;-70
2022/02/17 06:24:29;;;;;;;1.43;0.80;;;6.90;99.90;;;;;;4468258;32;20161;-70
2022/02/17 06:27:02;;;;;;;3.30;1.30;;;6.90;99.90;;;;;;4466868;32;20197;-70
2022/02/17 06:29:29;;;;;;;2.93;1.00;;;6.90;99.90;;;;;;4467181;32;20527;-70
2022/02/17 06:31:56;;;;;;;1.50;1.00;;;6.80;99.90;;;;;;4466114;32;20219;-70
2022/02/17 06:34:23;;;;;;;1.93;0.97;;;6.80;99.90;;;;;;4465680;32;20195;-71
2022/02/17 06:36:50;;;;;;;2.77;1.00;;;6.70;99.90;;;;;;4466134;32;20246;-72
2022/02/17 06:39:17;;;;;;;1.30;0.90;;;6.60;99.90;;;;;;4466020;32;20167;-71
2022/02/17 06:41:43;;;;;;;1.67;0.80;;;6.60;99.90;;;;;;4467225;32;20197;-71
2022/02/17 06:44:10;;;;;;;2.43;0.80;;;6.60;99.90;;;;;;4455367;32;20210;-71
2022/02/17 06:46:37;;;;;;;2.07;0.90;;;6.60;99.90;;;;;;4458374;32;20141;-72
2022/02/17 06:49:04;;;;;;;1.73;0.90;;;6.50;99.90;;;;;;4455169;32;20214;-72
2022/02/17 06:51:31;;;;;;;4.63;1.17;;;6.50;99.90;;;;;;4455793;32;20236;-72
2022/02/17 06:53:58;;;;;;;1.83;1.00;;;6.40;99.90;;;;;;4455972;32;20408;-72
2022/02/17 06:56:25;;;;;;;1.80;0.93;;;6.40;99.90;;;;;;4457654;32;20455;-72
2022/02/17 06:58:52;;;;;;;2.77;1.00;;;6.40;99.90;;;;;;4454329;32;20176;-72
2022/02/17 07:01:19;;;;;;;1.30;1.00;;;6.40;99.90;;;;;;4457174;32;20195;-72
2022/02/17 07:03:46;;;;;;;0.90;0.80;;;6.40;99.90;;;;;;4454280;32;20509;-72
2022/02/17 07:06:13;;;;;;;1.40;0.83;;;6.40;99.90;;;;;;4454535;32;20297;-72
2022/02/17 07:08:40;;;;;;;3.67;1.30;;;6.40;99.90;;;;;;4455827;32;20174;-72
2022/02/17 07:11:07;;;;;;;4.10;1.10;;;6.40;99.90;;;;;;4452788;32;20173;-72
2022/02/17 07:13:34;;;;;;;2.23;1.13;;;6.40;99.90;;;;;;4446821;32;20188;-72
2022/02/17 07:16:01;;;;;;;5.67;1.10;;;6.40;99.90;;;;;;4439492;32;20201;-72
2022/02/17 07:18:28;;;;;;;1.97;0.90;;;6.40;99.90;;;;;;4440161;32;20188;-72
2022/02/17 07:20:55;;;;;;;2.10;1.07;;;6.50;99.90;;;;;;4440650;32;20413;-72
2022/02/17 07:23:24;;;;;;;2.70;1.13;;;6.50;99.90;;;;;;4441149;32;20189;-71
2022/02/17 07:25:52;;;;;;;2.73;1.00;;;6.60;99.90;;;;;;4440949;32;20566;-73
2022/02/17 07:28:24;;;;;;;1.43;0.90;;;6.60;99.90;;;;;;4439781;32;20260;-71
2022/02/17 07:30:51;;;;;;;1.93;1.07;;;6.60;99.90;;;;;;4440466;32;20196;-71
2022/02/17 07:33:19;;;;;;;2.23;1.10;;;6.60;99.90;;;;;;4439039;32;20225;-71
2022/02/17 07:35:46;;;;;;;2.00;1.03;;;6.60;99.90;;;;;;4439616;32;20177;-71
2022/02/17 07:38:33;;;;;;;3.43;1.00;;;6.60;99.90;;;;;;4440781;32;20435;-71
2022/02/17 07:41:00;;;;;;;2.70;1.20;;;6.70;99.90;;;;;;4440082;32;20182;-71
2022/02/17 07:43:29;;;;;;;1.70;1.00;;;6.70;99.90;;;;;;4440187;32;20264;-71
2022/02/17 07:45:57;;;;;;;3.23;0.90;;;6.70;99.90;;;;;;4448951;32;20142;-71
2022/02/17 07:48:24;;;;;;;2.27;1.00;;;6.80;99.90;;;;;;4440310;32;20158;-70
2022/02/17 07:50:53;;;;;;;4.63;1.00;;;6.80;99.90;;;;;;4439992;32;20174;-70
2022/02/17 07:53:20;;;;;;;2.57;0.90;;;6.80;99.90;;;;;;4439289;32;20524;-70
2022/02/17 07:55:47;;;;;;;2.67;1.10;;;6.90;99.90;;;;;;4440061;32;20195;-70
2022/02/17 07:58:17;;;;;;;2.93;1.07;;;6.90;99.90;;;;;;4438707;32;20189;-69
2022/02/17 08:00:44;;;;;;;2.63;1.00;;;6.90;99.90;;;;;;4440305;32;20274;-70
2022/02/17 08:03:13;;;;;;;2.23;0.90;;;6.90;99.90;;;;;;4426241;32;20182;-70
2022/02/17 08:05:40;;;;;;;4.60;1.20;;;6.90;99.90;;;;;;4439572;32;20222;-70
2022/02/17 08:08:09;;;;;;;2.40;1.17;;;7.00;99.90;;;;;;4440600;32;20210;-69
2022/02/17 08:10:36;;;;;;;3.20;1.30;;;7.00;99.90;;;;;;4440131;32;20439;-68
2022/02/17 08:13:05;;;;;;;1.97;1.17;;;7.00;99.90;;;;;;4438901;32;20184;-69
2022/02/17 08:15:32;;;;;;;2.03;1.10;;;7.00;99.90;;;;;;4440353;32;20180;-68
2022/02/17 08:17:59;;;;;;;6.13;1.50;;;7.10;99.90;;;;;;4438450;32;20224;-69
2022/02/17 08:20:26;;;;;;;2.13;1.10;;;7.10;99.90;;;;;;4439143;32;20552;-68
2022/02/17 08:22:56;;;;;;;3.07;1.40;;;7.10;99.90;;;;;;4439861;32;20176;-69
2022/02/17 08:25:23;;;;;;;5.03;1.40;;;7.10;99.90;;;;;;4439887;32;20140;-69
2022/02/17 08:27:51;;;;;;;3.53;1.40;;;7.20;99.90;;;;;;4440967;32;20147;-69
2022/02/17 08:30:18;;;;;;;6.17;1.63;;;7.20;99.90;;;;;;4455365;32;20173;-69
2022/02/17 08:32:46;;;;;;;3.63;1.40;;;7.20;99.90;;;;;;4453389;32;20200;-68
2022/02/17 08:35:14;;;;;;;3.53;1.37;;;7.20;99.90;;;;;;4454140;32;20208;-69
2022/02/17 08:37:42;;;;;;;4.97;1.47;;;7.20;99.90;;;;;;4456205;32;20134;-69
2022/02/17 08:40:11;;;;;;;5.70;1.40;;;7.20;99.90;;;;;;4454087;32;20214;-69
2022/02/17 08:42:39;;;;;;;4.03;1.53;;;7.20;99.90;;;;;;4454473;32;20185;-69
2022/02/17 08:45:06;;;;;;;6.73;1.47;;;7.20;99.90;;;;;;4456037;32;20189;-70
2022/02/17 08:47:33;;;;;;;3.23;1.43;;;7.20;99.90;;;;;;4455412;32;20147;-68
2022/02/17 08:50:00;;;;;;;5.10;1.40;;;7.20;99.90;;;;;;4454610;32;20170;-71
2022/02/17 08:52:27;;;;;;;4.37;1.50;;;7.30;99.90;;;;;;4453308;32;20235;-71
2022/02/17 08:54:54;;;;;;;6.77;1.57;;;7.30;99.90;;;;;;4454679;32;20178;-71
2022/02/17 08:57:20;;;;;;;3.30;1.33;;;7.40;99.90;;;;;;4454889;32;20166;-71
2022/02/17 08:59:48;;;;;;;6.47;1.70;;;7.50;99.90;;;;;;4453594;32;20206;-70
2022/02/17 09:02:15;;;;;;;4.97;1.50;;;7.50;99.90;;;;;;4455069;32;20185;-71
2022/02/17 09:04:42;;;;;;;5.63;1.70;;;7.60;99.90;;;;;;4455910;32;20188;-71
2022/02/17 09:07:08;;;;;;;4.90;1.80;;;7.60;99.90;;;;;;4453219;32;20359;-72
2022/02/17 09:09:35;;;;;;;5.17;1.30;;;7.70;99.90;;;;;;4456697;32;20145;-72
2022/02/17 09:12:03;;;;;;;5.83;1.50;;;7.70;99.90;;;;;;4455489;32;20226;-72
2022/02/17 09:14:30;;;;;;;5.10;1.60;;;7.80;99.90;;;;;;4456233;32;20164;-71
2022/02/17 09:16:57;;;;;;;4.17;1.40;;;7.80;99.90;;;;;;4453871;32;20164;-71
2022/02/17 09:19:25;;;;;;;5.03;1.77;;;8.00;99.90;;;;;;4453968;32;20219;-71
2022/02/17 09:21:52;;;;;;;5.37;1.60;;;8.10;99.90;;;;;;4454846;32;20558;-69
2022/02/17 09:24:19;;;;;;;3.47;1.27;;;8.10;99.90;;;;;;4453585;32;20264;-69
2022/02/17 09:26:46;;;;;;;4.90;1.50;;;8.20;99.90;;;;;;4453203;32;20188;-69
2022/02/17 09:29:13;;;;;;;3.53;1.57;;;8.30;99.90;;;;;;4453925;32;20174;-69
2022/02/17 09:32:00;;;;;;;5.80;1.60;;;8.40;99.90;;;;;;4452692;32;20437;-69
2022/02/17 09:34:27;;;;;;;3.93;1.50;;;8.60;99.90;;;;;;4455004;32;20142;-70
2022/02/17 09:36:54;;;;;;;5.33;1.60;;;8.70;99.90;;;;;;4453016;32;20178;-69
2022/02/17 09:39:21;;;;;;;4.77;1.43;;;8.80;99.90;;;;;;4455069;32;20192;-70
2022/02/17 09:41:48;;;;;;;6.13;1.73;;;8.80;99.90;;;;;;4455231;32;20507;-69
2022/02/17 09:44:20;;;;;;;3.57;1.67;;;9.00;99.90;;;;;;4453920;32;20165;-71
2022/02/17 09:46:48;;;;;;;4.47;1.70;;;9.10;99.90;;;;;;4453734;32;20158;-69
2022/02/17 09:49:17;;;;;;;5.13;1.97;;;9.10;99.90;;;;;;4454065;32;20205;-69
2022/02/17 09:51:45;;;;;;;5.60;1.60;;;9.00;99.90;;;;;;4454285;32;20193;-70
2022/02/17 09:54:13;;;;;;;3.10;1.50;;;8.90;99.90;;;;;;4453977;32;20165;-68
2022/02/17 09:56:44;;;;;;;8.30;1.60;;;8.90;99.90;;;;;;4453666;32;20500;-71
2022/02/17 09:59:15;;;;;;;4.43;1.67;;;8.90;99.90;;;;;;4452780;32;20562;-70
2022/02/17 10:02:04;;;;;;;9.10;1.90;;;9.00;99.90;;;;;;4454244;32;20197;-69
2022/02/17 10:04:32;;;;;;;4.90;1.80;;;8.90;99.90;;;;;;4453653;32;20209;-69
2022/02/17 10:07:02;;;;;;;4.90;1.83;;;8.90;99.90;;;;;;4453465;32;20236;-68
2022/02/17 10:09:40;;;;;;;5.67;1.67;;;8.80;99.90;;;;;;4454524;32;20224;-69
2022/02/17 10:12:09;;;;;;;5.33;2.00;;;8.80;99.90;;;;;;4452694;32;20189;-68
2022/02/17 10:14:37;;;;;;;4.30;1.83;;;8.80;99.90;;;;;;4452555;32;20162;-70
2022/02/17 10:17:10;;;;;;;6.40;2.27;;;8.80;99.90;;;;;;4453119;32;20193;-69
2022/02/17 10:19:44;;;;;;;4.67;1.90;;;8.80;99.90;;;;;;4456578;32;20173;-69
2022/02/17 10:22:13;;;;;;;6.70;1.67;;;8.90;99.90;;;;;;4456325;32;20170;-69
2022/02/17 10:24:46;;;;;;;6.27;1.90;;;8.90;99.90;;;;;;4458885;32;20164;-70
2022/02/17 10:27:15;;;;;;;5.93;2.07;;;8.90;99.90;;;;;;4457617;32;20154;-70
2022/02/17 10:30:12;;;;;;;4.63;1.80;;;9.00;99.90;;;;;;4456202;32;20174;-70
2022/02/17 10:32:56;;;;;;;7.30;1.73;;;9.10;99.90;;;;;;4455543;32;20561;-70
2022/02/17 10:35:24;;;;;;;6.33;2.00;;;9.50;99.90;;;;;;4455210;32;20209;-71
2022/02/17 10:37:52;;;;;;;3.77;1.60;;;10.00;99.90;;;;;;4455966;32;20171;-69
2022/02/17 10:40:26;;;;;;;3.60;1.60;;;10.40;99.90;;;;;;4456769;32;20216;-71
2022/02/17 10:43:00;;;;;;;5.83;1.57;;;10.80;99.90;;;;;;4456833;32;20200;-70
2022/02/17 10:45:44;;;;;;;5.03;1.53;;;11.30;99.90;;;;;;4455500;32;20172;-71
2022/02/17 10:48:34;;;;;;;3.93;1.70;;;11.60;99.90;;;;;;4455935;32;20177;-71
2022/02/17 10:51:19;;;;;;;4.37;1.50;;;11.50;99.90;;;;;;4457480;32;20154;-69
2022/02/17 10:53:56;;;;;;;5.93;1.57;;;11.30;99.90;;;;;;4456417;32;20194;-68
2022/02/17 10:56:24;;;;;;;4.50;1.30;;;11.10;99.90;;;;;;4455667;32;20173;-70
2022/02/17 10:58:51;;;;;;;5.53;1.43;;;10.70;99.90;;;;;;4456644;32;20237;-69
2022/02/17 11:01:20;;;;;;;5.13;1.37;;;10.40;99.90;;;;;;4455407;32;20194;-70
2022/02/17 11:03:48;;;;;;;6.80;1.40;;;10.20;99.90;;;;;;4456174;32;20226;-68
2022/02/17 11:06:18;;;;;;;4.67;1.40;;;10.00;99.90;;;;;;4457065;32;20210;-68
2022/02/17 11:08:51;;;;;;;3.93;1.50;;;9.90;99.90;;;;;;4455622;32;20174;-71
2022/02/17 11:11:22;;;;;;;3.67;1.30;;;9.70;99.90;;;;;;4455840;32;20174;-70
2022/02/17 11:13:51;;;;;;;5.47;1.23;;;9.50;99.90;;;;;;4454922;32;20178;-71
2022/02/17 11:16:23;;;;;;;3.30;1.10;;;9.30;99.90;;;;;;4455270;32;20276;-70
2022/02/17 11:18:54;;;;;;;4.50;1.13;;;8.80;99.90;;;;;;4455243;32;20173;-72
2022/02/17 11:21:22;;;;;;;4.10;1.10;;;8.30;99.90;;;;;;4455588;32;20167;-69
2022/02/17 11:23:56;;;;;;;2.67;0.90;;;7.90;99.90;;;;;;4454909;32;20555;-70
2022/02/17 11:26:26;;;;;;;2.60;0.70;;;7.70;99.90;;;;;;4457092;32;20168;-70
2022/02/17 11:29:25;;;;;;;1.40;0.70;;;7.50;99.90;;;;;;4455429;32;20165;-72
2022/02/17 11:32:04;;;;;;;1.60;0.90;;;7.40;99.90;;;;;;4454913;32;20181;-71
2022/02/17 11:34:41;;;;;;;2.10;1.00;;;7.40;99.90;;;;;;4456267;32;20519;-73
2022/02/17 11:37:21;;;;;;;1.60;1.07;;;7.50;99.90;;;;;;4454801;32;20236;-72
2022/02/17 11:40:16;;;;;;;3.17;1.10;;;7.60;99.90;;;;;;4455404;32;20162;-72
2022/02/17 11:43:02;;;;;;;3.20;1.20;;;7.90;99.90;;;;;;4453392;32;20162;-70
2022/02/17 11:45:42;;;;;;;3.70;1.30;;;8.10;99.90;;;;;;4454339;32;20247;-70
2022/02/17 11:48:12;;;;;;;3.03;1.10;;;8.40;99.90;;;;;;4454411;32;20550;-70
2022/02/17 11:50:44;;;;;;;3.00;1.20;;;8.60;99.90;;;;;;4455521;32;20624;-71
2022/02/17 11:53:30;;;;;;;4.50;1.47;;;8.70;99.90;;;;;;4454303;32;20209;-71
2022/02/17 11:56:06;;;;;;;3.40;1.30;;;8.70;99.90;;;;;;4456327;32;20145;-70
2022/02/17 11:58:53;;;;;;;3.23;1.53;;;8.70;99.90;;;;;;4454068;32;20199;-70
2022/02/17 12:01:26;;;;;;;4.40;1.33;;;8.70;99.90;;;;;;4454786;32;20216;-71
2022/02/17 12:04:19;;;;;;;5.97;1.60;;;8.70;99.90;;;;;;4454276;32;20182;-70
2022/02/17 12:07:34;;;;;;;4.80;1.70;;;8.60;99.90;;;;;;4455430;32;20238;-71
2022/02/17 12:10:31;;;;;;;6.07;1.63;;;8.60;99.90;;;;;;4454253;32;20181;-71
2022/02/17 12:13:00;;;;;;;6.20;1.87;;;8.60;99.90;;;;;;4454456;32;20198;-71
2022/02/17 12:15:28;;;;;;;5.83;1.60;;;8.60;99.90;;;;;;4454125;32;20175;-71
2022/02/17 12:17:56;;;;;;;4.90;1.90;;;8.50;99.90;;;;;;4454075;32;20178;-71
2022/02/17 12:20:28;;;;;;;9.70;2.07;;;8.50;99.90;;;;;;4455500;32;20198;-72
2022/02/17 12:23:08;;;;;;;4.90;1.80;;;8.50;99.90;;;;;;4453856;32;20201;-72
2022/02/17 12:25:37;;;;;;;6.20;1.90;;;8.50;99.90;;;;;;4454311;32;20411;-72
2022/02/17 12:28:07;;;;;;;6.77;1.70;;;8.40;99.90;;;;;;4453857;32;20191;-70
2022/02/17 12:30:37;;;;;;;5.00;1.83;;;8.30;99.90;;;;;;4454414;32;20235;-71
2022/02/17 12:33:10;;;;;;;7.77;1.93;;;8.20;99.90;;;;;;4453715;32;20204;-71
2022/02/17 12:35:38;;;;;;;5.30;1.70;;;8.10;99.90;;;;;;4454463;32;20196;-71
2022/02/17 12:38:16;;;;;;;6.83;1.63;;;7.90;99.90;;;;;;4455447;32;20158;-68
2022/02/17 12:40:45;;;;;;;6.40;1.80;;;7.80;99.90;;;;;;4453259;32;20551;-69
2022/02/17 12:43:23;;;;;;;3.97;1.57;;;7.70;99.90;;;;;;4453715;32;20177;-70
2022/02/17 12:45:52;;;;;;;7.50;1.80;;;7.70;99.90;;;;;;4455617;32;20161;-69
2022/02/17 12:48:20;;;;;;;6.83;1.77;;;7.80;99.90;;;;;;4453281;32;20238;-70
2022/02/17 12:51:07;;;;;;;5.23;1.90;;;7.80;99.90;;;;;;4454848;32;20200;-70
2022/02/17 12:53:48;;;;;;;7.97;2.20;;;7.70;99.90;;;;;;4453740;32;20233;-71
2022/02/17 12:56:34;;;;;;;10.57;2.20;;;7.70;99.90;;;;;;4453804;32;20212;-71
2022/02/17 12:59:09;;;;;;;7.27;1.90;;;7.70;99.90;;;;;;4454055;32;20166;-71
2022/02/17 13:01:50;;;;;;;7.50;1.90;;;7.60;99.90;;;;;;4453518;32;20188;-70
2022/02/17 13:04:19;;;;;;;4.93;1.60;;;7.50;99.90;;;;;;4453517;32;20173;-72
2022/02/17 13:06:46;;;;;;;5.00;1.80;;;7.40;99.90;;;;;;4440772;32;20174;-72
2022/02/17 13:09:19;;;;;;;5.00;1.80;;;7.30;99.90;;;;;;4455136;32;20191;-69
2022/02/17 13:11:47;;;;;;;6.03;1.70;;;7.30;99.90;;;;;;4454031;32;20178;-69
2022/02/17 13:14:15;;;;;;;4.40;1.90;;;7.30;99.90;;;;;;4453333;32;20181;-69
2022/02/17 13:16:53;;;;;;;6.57;1.40;;;7.40;99.90;;;;;;4453968;32;20207;-72
2022/02/17 13:19:27;;;;;;;5.10;1.70;;;7.30;99.90;;;;;;4446044;32;20176;-72
2022/02/17 13:22:22;;;;;;;3.23;1.47;;;7.60;99.90;;;;;;4453236;32;20189;-72
2022/02/17 13:25:03;;;;;;;6.73;1.60;;;8.00;99.90;;;;;;4453916;32;20188;-70
2022/02/17 13:27:37;;;;;;;5.43;1.80;;;8.00;99.90;;;;;;4454493;32;20189;-71
2022/02/17 13:30:13;;;;;;;4.00;1.20;;;7.90;99.90;;;;;;4454690;32;20138;-70
2022/02/17 13:32:55;;;;;;;4.37;1.47;;;7.80;99.90;;;;;;4453786;32;20196;-70
2022/02/17 13:35:22;;;;;;;3.87;1.50;;;7.70;99.90;;;;;;4453499;32;20504;-70
2022/02/17 13:37:51;;;;;;;4.10;1.30;;;7.70;99.90;;;;;;4454323;32;20515;-76
2022/02/17 13:40:21;;;;;;;5.13;1.40;;;7.60;99.90;;;;;;4452749;32;20305;-70
2022/02/17 13:43:07;;;;;;;4.47;1.53;;;7.60;99.90;;;;;;4453605;32;20185;-71
2022/02/17 13:45:37;;;;;;;8.07;1.57;;;7.50;99.90;;;;;;4453128;32;20272;-71
2022/02/17 13:48:25;;;;;;;4.83;1.27;;;7.40;99.90;;;;;;4452894;32;20242;-69
2022/02/17 13:51:05;;;;;;;5.83;1.40;;;7.30;99.90;;;;;;4448264;32;20178;-68
2022/02/17 13:53:34;;;;;;;6.87;1.60;;;7.10;99.90;;;;;;4447428;32;20169;-70
2022/02/17 13:56:04;;;;;;;5.33;1.73;;;7.00;99.90;;;;;;4440840;32;20208;-70
2022/02/17 13:58:33;;;;;;;7.37;1.70;;;6.90;99.90;;;;;;4440378;32;20245;-71
2022/02/17 14:01:01;;;;;;;5.23;1.87;;;6.80;99.90;;;;;;4440754;32;20493;-70
2022/02/17 14:03:39;;;;;;;6.07;1.87;;;6.60;99.90;;;;;;4440514;32;20232;-69
2022/02/17 14:06:20;;;;;;;6.97;1.70;;;6.50;99.90;;;;;;4440455;32;20179;-71
2022/02/17 14:08:48;;;;;;;6.43;2.23;;;6.40;99.90;;;;;;4440691;32;20220;-71
2022/02/17 14:11:16;;;;;;;5.47;1.70;;;6.30;99.90;;;;;;4440900;32;20177;-71
2022/02/17 14:13:44;;;;;;;6.80;1.80;;;6.30;99.90;;;;;;4441012;32;20182;-70
2022/02/17 14:16:12;;;;;;;7.83;1.73;;;6.20;99.90;;;;;;4441971;32;20215;-71
2022/02/17 14:18:40;;;;;;;5.70;1.80;;;6.10;99.90;;;;;;4447339;32;20197;-69
2022/02/17 14:21:08;;;;;;;5.67;1.97;;;6.10;99.90;;;;;;4440968;32;20161;-70
2022/02/17 14:23:35;;;;;;;6.23;1.73;;;6.00;99.90;;;;;;4440291;32;20177;-70
2022/02/17 14:26:04;;;;;;;7.03;2.30;;;6.00;99.90;;;;;;4440739;32;20163;-68
2022/02/17 14:28:31;;;;;;;9.33;1.90;;;6.00;99.90;;;;;;4441261;32;20232;-69
2022/02/17 14:30:58;;;;;;;6.67;2.10;;;6.00;99.90;;;;;;4440454;32;20535;-67
2022/02/17 14:33:25;;;;;;;8.67;2.20;;;5.90;99.90;;;;;;4441084;32;20166;-68